Wake Forest, NC

12:02 PM EST on March 02, 2015 (GMT -0500)
Raleigh-Durham International | Change Station
CLOSE
Current Station
Airport
Location: Raleigh-Durham Airport,
Elevation: 436 ft
Nearby Weather Stations

Elev 436 ft 35.89 °N, 78.78 °W | Updated 11 minutes ago

Scattered Clouds
Scattered Clouds
57 °F
Feels Like 57 °F
N
7
Wind Variable Wind from North

Today
High -- | Low -- °F
--% Chance of Precip.
Yesterday
High -- | Low -- °F
Precip. -- in
6:43 AM 6:09 PM
Waxing Gibbous, 92% visible
Pressure 30.26 in
Visibility 10.0 miles
Clouds Few 3000 ft
Scattered Clouds 25000 ft
Dew Point 42 °F
Humidity 57%
Rainfall 0.00 in
Snow Depth Not available.
UV 5 out of 12
Pollen 7.30 out of 12
Air Quality Not available.
Flu Activity Not available.
METAR KRDU 021651Z 36006KT 10SM FEW030 SCT250 14/06 A3025 RMK AO2 SLP245 T01390056

More Conditions Fewer Conditions

Pressure 30.26 in
Visibility 10.0 miles
Clouds Few 3000 ft
Scattered Clouds 25000 ft
Dew Point 42 °F
Humidity 57%
Rainfall 0.00 in
Snow Depth Not available.
UV 5 out of 12
Pollen 7.30 out of 12
Air Quality Not available.
Flu Activity Not available.
METAR KRDU 021651Z 36006KT 10SM FEW030 SCT250 14/06 A3025 RMK AO2 SLP245 T01390056

More Conditions Fewer Conditions

10-Day Weather Forecast

Almanac

Astronomy

Mar. 02, 2015 Rise Set
Actual Time
Civil Twilight
Nautical Twilight
Astronomical Twilight
Moon
Length of Visible Light
Length of Day
Tomorrow will be .
, % of the Moon is Illuminated

Today's Extremes

State Highs State Lows

Community

WunderPhotos

Upload Photos

1,801,852 photos uploaded!

WunderBlogs® & News

Nearby

Air Quality

  Air Quality AQ Index Pollutant
Not available.

Snow Depth

Station Depth Elevation

Earthquake Activity

City Distance Mag. Time & Date
Minimum magnitude displayed is 2.5.

Coastal Water Temperatures

Place Temperature

Nearby Weather Stations